Time;durP1;ratioP1;P1;durP2;ratioP2;P2;SDS_P1;SDS_P2;PMS_P1;PMS_P2;Temp;Humidity;BMP_temperature;BMP_pressure;BME280_temperature;BME280_humidity;BME280_pressure;Samples;Min_cycle;Max_cycle;Signal;HPM_P1;HPM_P2
2021/01/05 00:00:20;;;;;;;;;;;;;;;3.33;100.00;97497.88;5004093;28;19902;-84
2021/01/05 00:02:45;;;;;;;;;;;;;;;3.29;100.00;97485.97;5004543;28;19909;-84
2021/01/05 00:05:11;;;;;;;;;;;;;;;3.18;100.00;97494.00;5020926;28;19922;-86
2021/01/05 00:07:37;;;;;;;;;;;;;;;3.23;100.00;97498.63;5020901;28;19909;-87
2021/01/05 00:10:04;;;;;;;;;;;;;;;3.18;100.00;97496.72;5020441;28;19937;-86
2021/01/05 00:12:29;;;;;;;;;;;;;;;3.24;100.00;97498.38;5020519;28;19949;-86
2021/01/05 00:14:54;;;;;;;;;;;;;;;3.14;100.00;97503.69;5003198;28;19901;-88
2021/01/05 00:17:20;;;;;;;;;;;;;;;3.14;100.00;97501.00;5003514;28;19902;-89
2021/01/05 00:19:49;;;;;;;;;;;;;;;3.14;100.00;97506.41;5020475;28;19918;-85
2021/01/05 00:22:16;;;;;;;;;;;;;;;3.10;100.00;97502.59;5003387;28;19937;-87
2021/01/05 00:24:44;;;;;;;;;;;;;;;3.12;100.00;97508.56;5003852;28;19905;-84
2021/01/05 00:27:10;;;;;;;;;;;;;;;3.07;100.00;97497.69;5019809;28;19924;-85
2021/01/05 00:29:36;;;;;;;;;;;;;;;3.05;100.00;97507.13;5003153;28;19918;-89
2021/01/05 00:32:02;;;;;;;;;;;;;;;3.05;100.00;97494.44;4999672;28;19915;-91
2021/01/05 00:34:27;;;;;;;;;;;;;;;3.08;100.00;97495.81;4999821;28;19924;-84
2021/01/05 00:36:53;;;;;;;;;;;;;;;3.06;100.00;97487.16;5000135;28;19902;-88
2021/01/05 00:39:18;;;;;;;;;;;;;;;3.03;100.00;97493.91;4999892;28;19918;-88
2021/01/05 00:41:43;;;;;;;;;;;;;;;3.03;100.00;97493.91;5000589;28;19910;-85
2021/01/05 00:44:09;;;;;;;;;;;;;;;3.13;100.00;97490.47;5000391;28;19906;-85
2021/01/05 00:46:34;;;;;;;;;;;;;;;3.19;100.00;97503.75;5000033;28;19909;-82
2021/01/05 00:48:59;;;;;;;;;;;;;;;3.19;100.00;97509.16;5000680;28;19902;-82
2021/01/05 00:51:27;;;;;;;;;;;;;;;3.23;100.00;97518.34;5000765;28;19965;-80
2021/01/05 00:53:52;;;;;;;;;;;;;;;3.29;100.00;97511.09;5000288;28;19920;-82
2021/01/05 00:56:18;;;;;;;;;;;;;;;3.32;100.00;97518.69;5000812;28;19937;-80
2021/01/05 00:58:43;;;;;;;;;;;;;;;3.36;99.89;97516.28;5000692;28;19902;-80
2021/01/05 01:01:08;;;;;;;;;;;;;;;3.35;100.00;97522.78;5000598;28;19902;-82
2021/01/05 01:03:34;;;;;;;;;;;;;;;3.42;100.00;97517.94;5001204;28;19949;-82
2021/01/05 01:05:59;;;;;;;;;;;;;;;3.43;100.00;97516.88;5000545;28;19902;-83
2021/01/05 01:08:24;;;;;;;;;;;;;;;3.41;99.90;97519.03;4999781;28;19902;-82
2021/01/05 01:10:50;;;;;;;;;;;;;;;3.52;99.90;97520.72;4999534;28;19902;-84
2021/01/05 01:13:15;;;;;;;;;;;;;;;3.36;99.52;97513.56;5000401;28;19977;-85
2021/01/05 01:15:41;;;;;;;;;;;;;;;3.38;100.00;97519.56;4999880;28;19902;-84
2021/01/05 01:18:06;;;;;;;;;;;;;;;3.37;100.00;97523.31;4999703;28;19933;-82
2021/01/05 01:20:32;;;;;;;;;;;;;;;3.35;100.00;97522.78;4999613;28;19974;-84
2021/01/05 01:22:57;;;;;;;;;;;;;;;3.42;100.00;97523.34;5000152;28;19902;-87
2021/01/05 01:25:22;;;;;;;;;;;;;;;3.39;99.19;97523.84;5000162;28;19922;-86
2021/01/05 01:27:48;;;;;;;;;;;;;;;3.42;99.12;97520.63;4999996;28;19902;-83
2021/01/05 01:30:14;;;;;;;;;;;;;;;3.37;98.76;97524.13;4999664;28;19933;-83
2021/01/05 01:32:39;;;;;;;;;;;;;;;3.39;98.67;97519.28;5017994;28;19906;-86
2021/01/05 01:35:05;;;;;;;;;;;;;;;3.30;98.95;97514.63;5002339;28;19963;-86
2021/01/05 01:37:30;;;;;;;;;;;;;;;3.32;99.24;97526.00;5002390;28;19902;-81
2021/01/05 01:39:56;;;;;;;;;;;;;;;3.35;99.32;97522.78;5019082;28;19913;-84
2021/01/05 01:42:21;;;;;;;;;;;;;;;3.35;99.91;97530.88;5019176;28;19909;-82
2021/01/05 01:44:47;;;;;;;;;;;;;;;3.32;100.00;97523.28;5019144;28;19959;-84
2021/01/05 01:47:16;;;;;;;;;;;;;;;3.27;100.00;97523.25;5019008;28;19952;-86
2021/01/05 01:49:45;;;;;;;;;;;;;;;3.21;100.00;97523.22;5002196;28;19909;-82
2021/01/05 01:52:11;;;;;;;;;;;;;;;3.24;100.00;97522.69;5002201;28;19922;-81
2021/01/05 01:54:40;;;;;;;;;;;;;;;3.30;100.00;97517.31;5002191;28;19902;-82
2021/01/05 01:57:24;;;;;;;;;;;;;;;3.39;100.00;97523.84;5002371;28;19902;-81
2021/01/05 01:59:52;;;;;;;;;;;;;;;3.52;100.00;97520.72;5002043;28;19932;-82
2021/01/05 02:02:27;;;;;;;;;;;;;;;3.51;99.66;97516.41;5002606;28;19901;-87
2021/01/05 02:05:06;;;;;;;;;;;;;;;3.58;99.84;97516.97;5018730;28;19973;-82
2021/01/05 02:07:36;;;;;;;;;;;;;;;3.50;99.67;97510.16;5018920;28;19905;-80
2021/01/05 02:10:13;;;;;;;;;;;;;;;3.51;99.75;97516.41;5016729;28;19990;-90
2021/01/05 02:12:54;;;;;;;;;;;;;;;3.40;99.44;97518.22;5018839;28;19898;-84
2021/01/05 02:15:37;;;;;;;;;;;;;;;3.35;99.80;97511.97;5002012;28;19908;-84
2021/01/05 02:18:03;;;;;;;;;;;;;;;3.42;99.90;97507.13;5001748;28;19922;-84
2021/01/05 02:20:31;;;;;;;;;;;;;;;3.47;100.00;97505.28;5018431;28;19940;-84
2021/01/05 02:23:15;;;;;;;;;;;;;;;3.38;100.00;97503.34;5001792;28;19901;-84
2021/01/05 02:25:59;;;;;;;;;;;;;;;3.49;100.00;97499.59;5018539;28;20011;-87
2021/01/05 02:28:28;;;;;;;;;;;;;;;3.47;100.00;97499.06;5001656;28;19908;-85
2021/01/05 02:31:13;;;;;;;;;;;;;;;3.38;100.00;97501.44;5018042;28;19914;-81
2021/01/05 02:33:50;;;;;;;;;;;;;;;3.28;100.00;97498.69;4998789;28;19902;-85
2021/01/05 02:36:22;;;;;;;;;;;;;;;3.27;100.00;97499.75;5001828;28;19909;-84
2021/01/05 02:39:02;;;;;;;;;;;;;;;3.28;100.00;97500.56;5018282;28;19902;-84
2021/01/05 02:41:37;;;;;;;;;;;;;;;3.28;100.00;97497.84;5018312;28;19917;-85
2021/01/05 02:44:05;;;;;;;;;;;;;;;3.26;100.00;97498.09;5001682;28;19917;-85
2021/01/05 02:46:49;;;;;;;;;;;;;;;3.26;100.00;97490.00;5001627;28;19908;-86
2021/01/05 02:49:33;;;;;;;;;;;;;;;3.27;100.00;97498.91;5001509;28;19909;-86
2021/01/05 02:52:02;;;;;;;;;;;;;;;3.21;100.00;97500.78;5005652;28;19908;-85
2021/01/05 02:54:47;;;;;;;;;;;;;;;3.25;100.00;97504.59;5005500;28;19909;-85
2021/01/05 02:57:30;;;;;;;;;;;;;;;3.20;100.00;97499.97;5022371;28;19920;-83
2021/01/05 03:00:05;;;;;;;;;;;;;;;3.17;100.00;97495.06;5005043;28;19906;-88
2021/01/05 03:02:49;;;;;;;;;;;;;;;3.22;100.00;97497.84;5005884;28;19902;-90
2021/01/05 03:05:15;;;;;;;;;;;;;;;3.23;100.00;97483.22;5005464;28;19908;-86
2021/01/05 03:07:40;;;;;;;;;;;;;;;3.30;100.00;97482.19;5005296;28;19902;-84
2021/01/05 03:10:10;;;;;;;;;;;;;;;3.38;100.00;97484.41;5005399;28;19901;-85
2021/01/05 03:12:54;;;;;;;;;;;;;;;3.58;100.00;97481.81;5005239;28;19902;-88
2021/01/05 03:15:38;;;;;;;;;;;;;;;3.49;100.00;97475.28;5004051;28;19922;-84
2021/01/05 03:18:08;;;;;;;;;;;;;;;3.31;100.00;97479.25;5005236;28;19902;-84
2021/01/05 03:20:39;;;;;;;;;;;;;;;3.28;100.00;97474.34;5021916;28;19902;-84
2021/01/05 03:23:06;;;;;;;;;;;;;;;3.28;100.00;97474.34;5021712;28;19924;-86
2021/01/05 03:25:35;;;;;;;;;;;;;;;3.22;100.00;97476.22;5004719;28;19949;-84
2021/01/05 03:28:02;;;;;;;;;;;;;;;3.17;100.00;97472.63;5021714;28;19924;-87
2021/01/05 03:30:43;;;;;;;;;;;;;;;3.21;100.00;97471.88;5004828;28;19901;-84
2021/01/05 03:33:08;;;;;;;;;;;;;;;3.23;100.00;97475.13;5000981;28;19905;-84
2021/01/05 03:35:34;;;;;;;;;;;;;;;3.15;100.00;97464.81;5004502;28;19924;-86
2021/01/05 03:37:59;;;;;;;;;;;;;;;3.06;100.00;97469.06;5004865;28;19928;-86
2021/01/05 03:40:25;;;;;;;;;;;;;;;2.98;100.00;97464.13;5004597;28;19902;-81
2021/01/05 03:42:50;;;;;;;;;;;;;;;2.94;100.00;97465.75;5021558;28;19953;-84
2021/01/05 03:45:20;;;;;;;;;;;;;;;2.92;100.00;97454.38;5004497;28;19918;-85
2021/01/05 03:47:46;;;;;;;;;;;;;;;2.90;100.00;97461.09;5021249;28;19961;-87
2021/01/05 03:50:11;;;;;;;;;;;;;;;2.85;100.00;97464.56;5004481;28;19945;-84
2021/01/05 03:52:36;;;;;;;;;;;;;;;2.82;100.00;97469.69;5021153;28;19908;-87
2021/01/05 03:55:02;;;;;;;;;;;;;;;2.87;100.00;97464.31;5020656;28;19932;-84
2021/01/05 03:57:27;;;;;;;;;;;;;;;2.98;100.00;97471.41;5004470;28;19937;-84
2021/01/05 03:59:53;;;;;;;;;;;;;;;2.90;100.00;97463.81;5021113;28;19921;-85
2021/01/05 04:02:21;;;;;;;;;;;;;;;2.84;100.00;97472.94;5019433;28;19906;-91
2021/01/05 04:04:47;;;;;;;;;;;;;;;2.88;100.00;97469.44;5021333;28;19901;-83
2021/01/05 04:07:12;;;;;;;;;;;;;;;2.94;100.00;97468.44;5020931;28;19941;-86
2021/01/05 04:09:37;;;;;;;;;;;;;;;2.90;100.00;97467.31;5003893;28;19963;-84
2021/01/05 04:12:03;;;;;;;;;;;;;;;2.87;100.00;97465.16;5020823;28;19985;-87
2021/01/05 04:14:28;;;;;;;;;;;;;;;2.92;100.00;97469.75;5003028;28;19902;-86
2021/01/05 04:16:56;;;;;;;;;;;;;;;3.06;100.00;97474.47;5003148;28;19957;-90
2021/01/05 04:19:21;;;;;;;;;;;;;;;3.05;100.00;97470.13;5003576;28;19918;-84
2021/01/05 04:21:50;;;;;;;;;;;;;;;2.98;100.00;97477.63;5003800;28;19940;-87
2021/01/05 04:24:16;;;;;;;;;;;;;;;2.92;100.00;97478.66;5020558;28;19933;-83
2021/01/05 04:26:41;;;;;;;;;;;;;;;2.87;100.00;97473.25;5002636;28;19902;-86
2021/01/05 04:29:06;;;;;;;;;;;;;;;2.91;100.00;97474.38;5020680;28;19917;-84
2021/01/05 04:31:35;;;;;;;;;;;;;;;2.90;100.00;97486.22;5003354;28;19980;-84
2021/01/05 04:34:01;;;;;;;;;;;;;;;3.07;100.00;97478.00;5004401;28;19925;-85
2021/01/05 04:36:26;;;;;;;;;;;;;;;3.09;100.00;97471.25;5020557;28;19973;-82
2021/01/05 04:38:51;;;;;;;;;;;;;;;3.02;100.00;97484.16;5020555;28;19914;-83
2021/01/05 04:41:18;;;;;;;;;;;;;;;3.10;100.00;97478.25;5003620;28;19910;-83
2021/01/05 04:43:51;;;;;;;;;;;;;;;3.14;100.00;97483.97;5020682;28;19914;-82
2021/01/05 04:46:20;;;;;;;;;;;;;;;3.29;100.00;97475.97;5015799;28;19902;-81
2021/01/05 04:48:51;;;;;;;;;;;;;;;3.28;100.00;97477.06;5020269;28;19925;-81
2021/01/05 04:51:23;;;;;;;;;;;;;;;3.07;100.00;97478.00;5003494;28;19942;-82
2021/01/05 04:53:56;;;;;;;;;;;;;;;3.00;100.00;97480.91;5020266;28;19908;-83
2021/01/05 04:56:26;;;;;;;;;;;;;;;2.98;100.00;97477.63;5020240;28;19902;-81
2021/01/05 04:58:54;;;;;;;;;;;;;;;3.01;100.00;97482.53;5019569;28;19918;-89
2021/01/05 05:01:22;;;;;;;;;;;;;;;3.15;100.00;97480.19;5019597;28;19909;-88
2021/01/05 05:04:06;;;;;;;;;;;;;;;3.14;100.00;97483.97;5003681;28;19902;-86
2021/01/05 05:06:38;;;;;;;;;;;;;;;3.15;100.00;97489.13;5003047;28;19948;-87
2021/01/05 05:09:07;;;;;;;;;;;;;;;3.14;100.00;97489.38;5019510;28;19928;-91
2021/01/05 05:11:45;;;;;;;;;;;;;;;3.22;100.00;97487.03;5003091;28;19925;-84
2021/01/05 05:14:15;;;;;;;;;;;;;;;3.24;100.00;97484.88;5002649;28;19962;-83
2021/01/05 05:16:47;;;;;;;;;;;;;;;3.33;100.00;97489.78;5003044;28;19902;-83
2021/01/05 05:19:31;;;;;;;;;;;;;;;3.32;100.00;97488.16;5002932;28;19917;-84
2021/01/05 05:22:04;;;;;;;;;;;;;;;3.16;100.00;97482.63;5002874;28;19936;-83
2021/01/05 05:24:34;;;;;;;;;;;;;;;3.22;100.00;97484.31;5019378;28;19902;-81
2021/01/05 05:27:04;;;;;;;;;;;;;;;3.14;100.00;97479.38;5019688;28;19908;-84
2021/01/05 05:29:29;;;;;;;;;;;;;;;3.11;100.00;97479.91;5019454;28;19902;-89
2021/01/05 05:31:57;;;;;;;;;;;;;;;3.20;100.00;97489.16;5019306;28;19925;-85
2021/01/05 05:34:24;;;;;;;;;;;;;;;3.32;100.00;97485.47;5019763;28;19908;-83
2021/01/05 05:37:00;;;;;;;;;;;;;;;3.25;99.98;97482.97;5019203;28;19902;-86
2021/01/05 05:39:51;;;;;;;;;;;;;;;3.11;100.00;97485.31;5002460;28;19944;-90
2021/01/05 05:42:26;;;;;;;;;;;;;;;3.36;100.00;97484.66;5002382;28;19945;-85
2021/01/05 05:45:02;;;;;;;;;;;;;;;3.32;100.00;97485.47;5002238;28;19928;-84
2021/01/05 05:47:34;;;;;;;;;;;;;;;3.25;100.00;97482.97;5002228;28;19902;-88
2021/01/05 05:50:05;;;;;;;;;;;;;;;3.17;100.00;97481.56;5002413;28;19901;-85
2021/01/05 05:52:31;;;;;;;;;;;;;;;3.14;100.00;97495.59;5018992;28;19902;-84
2021/01/05 05:54:57;;;;;;;;;;;;;;;3.20;100.00;97496.44;5018928;28;19909;-82
2021/01/05 05:57:40;;;;;;;;;;;;;;;3.28;100.00;97495.16;5002389;28;19913;-84
2021/01/05 06:00:11;;;;;;;;;;;;;;;3.27;100.00;97493.50;5002313;28;19901;-85
2021/01/05 06:02:37;;;;;;;;;;;;;;;3.26;100.00;97498.09;5001991;28;20006;-86
2021/01/05 06:05:14;;;;;;;;;;;;;;;3.24;100.00;97494.84;5018951;28;19913;-86
2021/01/05 06:07:40;;;;;;;;;;;;;;;3.18;100.00;97491.31;5018781;28;19925;-85
2021/01/05 06:10:05;;;;;;;;;;;;;;;3.14;100.00;97492.91;5018847;28;19933;-89
2021/01/05 06:12:31;;;;;;;;;;;;;;;3.13;100.00;97499.34;5018821;28;19980;-86
2021/01/05 06:14:56;;;;;;;;;;;;;;;3.07;100.00;97484.19;5001896;28;19945;-85
2021/01/05 06:17:21;;;;;;;;;;;;;;;3.10;100.00;97489.06;5001995;28;19902;-85
2021/01/05 06:19:47;;;;;;;;;;;;;;;3.10;100.00;97488.28;5018299;28;19902;-83
2021/01/05 06:22:12;;;;;;;;;;;;;;;3.09;100.00;97487.47;5001869;28;19958;-86
2021/01/05 06:24:37;;;;;;;;;;;;;;;2.99;100.00;97486.56;5005887;28;19922;-88
2021/01/05 06:27:03;;;;;;;;;;;;;;;2.98;100.00;97488.44;5001056;28;19913;-87
2021/01/05 06:29:28;;;;;;;;;;;;;;;2.91;100.00;97490.56;4989146;28;19953;-89
2021/01/05 06:31:53;;;;;;;;;;;;;;;2.89;100.00;97491.88;4998043;28;19921;-88
2021/01/05 06:34:18;;;;;;;;;;;;;;;2.97;100.00;97484.13;4995566;28;20371;-88
2021/01/05 06:36:44;;;;;;;;;;;;;;;2.95;100.00;97486.25;4987293;28;19918;-86
2021/01/05 06:39:09;;;;;;;;;;;;;;;2.81;100.00;97479.69;4979486;28;19932;-84
2021/01/05 06:41:34;;;;;;;;;;;;;;;2.75;100.00;97480.72;4984298;28;19917;-88
2021/01/05 06:43:59;;;;;;;;;;;;;;;2.62;100.00;97475.72;5006977;28;19918;-87
2021/01/05 06:46:25;;;;;;;;;;;;;;;2.58;100.00;97480.00;4988686;28;19921;-89
2021/01/05 06:48:50;;;;;;;;;;;;;;;2.64;100.00;97489.78;4984749;28;19917;-89
2021/01/05 06:51:15;;;;;;;;;;;;;;;2.58;100.00;97496.19;4984444;28;19928;-89
2021/01/05 06:53:41;;;;;;;;;;;;;;;2.89;100.00;97491.88;5023239;28;19959;-91
2021/01/05 06:56:06;;;;;;;;;;;;;;;2.89;100.00;97492.69;4993738;28;19921;-86
2021/01/05 06:58:31;;;;;;;;;;;;;;;2.97;100.00;97500.34;5012202;28;19938;-89
2021/01/05 07:00:56;;;;;;;;;;;;;;;3.01;100.00;97497.91;5013581;28;19960;-87
2021/01/05 07:03:22;;;;;;;;;;;;;;;3.13;100.00;97502.06;5011911;28;20023;-87
2021/01/05 07:05:47;;;;;;;;;;;;;;;2.97;100.00;97497.63;4993408;28;20382;-86
2021/01/05 07:08:12;;;;;;;;;;;;;;;2.91;100.00;97495.97;5008118;28;19937;-84
2021/01/05 07:10:37;;;;;;;;;;;;;;;3.04;100.00;97498.22;5009815;28;20293;-85
2021/01/05 07:13:03;;;;;;;;;;;;;;;3.22;100.00;97497.84;4992001;28;19917;-86
2021/01/05 07:15:28;;;;;;;;;;;;;;;3.26;100.00;97497.31;5010112;28;19909;-82
2021/01/05 07:17:54;;;;;;;;;;;;;;;3.24;100.00;97509.19;4993120;28;19956;-87
2021/01/05 07:20:19;;;;;;;;;;;;;;;3.22;100.00;97511.34;4993117;28;19963;-84
2021/01/05 07:22:44;;;;;;;;;;;;;;;3.41;100.00;97509.03;4992542;28;19917;-85
2021/01/05 07:25:12;;;;;;;;;;;;;;;3.41;100.00;97508.22;5010630;28;20405;-84
2021/01/05 07:27:38;;;;;;;;;;;;;;;3.42;100.00;97507.13;4992854;28;20349;-78
2021/01/05 07:30:04;;;;;;;;;;;;;;;3.43;100.00;97508.75;4995098;28;19949;-87
2021/01/05 07:32:29;;;;;;;;;;;;;;;3.59;100.00;97505.91;4986497;28;20326;-77
2021/01/05 07:34:58;;;;;;;;;;;;;;;3.51;100.00;97490.16;4986779;28;19929;-89
2021/01/05 07:37:25;;;;;;;;;;;;;;;3.42;100.00;97499.84;5006015;28;19917;-91
2021/01/05 07:39:50;;;;;;;;;;;;;;;3.36;100.00;97494.66;5012312;28;19921;-88
2021/01/05 07:42:29;;;;;;;;;;;;;;;3.41;100.00;97492.81;4993937;28;19917;-88
2021/01/05 07:44:56;;;;;;;;;;;;;;;3.42;100.00;97504.41;5016984;28;19901;-83
2021/01/05 07:47:22;;;;;;;;;;;;;;;3.38;100.00;97511.44;4989546;28;19977;-91
2021/01/05 07:49:48;;;;;;;;;;;;;;;3.36;100.00;97516.28;4989617;28;19910;-86
2021/01/05 07:52:19;;;;;;;;;;;;;;;3.40;100.00;97517.41;5006592;28;19940;-91
2021/01/05 07:54:46;;;;;;;;;;;;;;;3.49;100.00;97521.22;5013780;28;19925;-90
2021/01/05 07:57:12;;;;;;;;;;;;;;;3.47;99.87;97528.78;5007814;28;19917;-90
2021/01/05 07:59:38;;;;;;;;;;;;;;;3.46;100.00;97521.75;4991087;28;19993;-90
2021/01/05 08:02:03;;;;;;;;;;;;;;;3.57;100.00;97520.75;5005154;28;19998;-87
2021/01/05 08:04:31;;;;;;;;;;;;;;;3.52;100.00;97528.81;5002920;28;19917;-86
2021/01/05 08:06:58;;;;;;;;;;;;;;;3.52;100.00;97526.94;4984972;28;19914;-92
2021/01/05 08:09:23;;;;;;;;;;;;;;;3.61;100.00;97527.25;4985335;28;20417;-88
2021/01/05 08:11:48;;;;;;;;;;;;;;;3.68;99.79;97530.53;5001907;28;19917;-90
2021/01/05 08:14:14;;;;;;;;;;;;;;;3.76;99.34;97528.16;4996081;28;20164;-88
2021/01/05 08:16:39;;;;;;;;;;;;;;;3.75;99.57;97528.44;5013813;28;20332;-87
2021/01/05 08:19:04;;;;;;;;;;;;;;;3.78;99.39;97523.31;5002050;28;19917;-87
2021/01/05 08:21:29;;;;;;;;;;;;;;;3.81;99.47;97516.56;5008196;28;20362;-90
2021/01/05 08:23:55;;;;;;;;;;;;;;;3.98;99.19;97522.56;5013923;28;19925;-85
2021/01/05 08:26:20;;;;;;;;;;;;;;;3.98;98.71;97519.09;4991271;28;19961;-91
2021/01/05 08:28:46;;;;;;;;;;;;;;;4.05;98.66;97508.81;4977300;28;19925;-89
2021/01/05 08:31:12;;;;;;;;;;;;;;;4.23;98.59;97509.16;4997386;28;20406;-86
2021/01/05 08:33:37;;;;;;;;;;;;;;;4.37;97.57;97520.31;4995915;28;19976;-87
2021/01/05 08:36:03;;;;;;;;;;;;;;;4.31;97.22;97514.06;4997025;28;19922;-89
2021/01/05 08:38:28;;;;;;;;;;;;;;;4.22;97.74;97509.44;4978544;28;19924;-87
2021/01/05 08:40:53;;;;;;;;;;;;;;;4.18;97.24;97517.25;4978486;28;19917;-87
2021/01/05 08:43:18;;;;;;;;;;;;;;;3.93;98.37;97522.56;4976029;28;19918;-85
2021/01/05 08:45:44;;;;;;;;;;;;;;;4.11;98.46;97523.97;4994349;28;19916;-88
2021/01/05 08:48:09;;;;;;;;;;;;;;;4.14;97.86;97521.56;4975806;28;20413;-87
2021/01/05 08:50:35;;;;;;;;;;;;;;;4.85;99.26;97527.19;4976601;28;20359;-90
2021/01/05 08:53:01;;;;;;;;;;;;;;;4.75;95.81;97533.41;4979688;28;19910;-84
2021/01/05 08:55:27;;;;;;;;;;;;;;;4.52;96.23;97533.06;5008472;28;20012;-85
2021/01/05 08:57:52;;;;;;;;;;;;;;;4.68;95.80;97530.13;4996985;28;19948;-88
2021/01/05 09:00:18;;;;;;;;;;;;;;;4.64;95.50;97530.91;5002387;28;19959;-91
2021/01/05 09:02:43;;;;;;;;;;;;;;;4.52;95.88;97535.75;5009668;28;20374;-90
2021/01/05 09:05:09;;;;;;;;;;;;;;;4.48;95.79;97534.69;5011712;28;19956;-89
2021/01/05 09:07:35;;;;;;;;;;;;;;;4.58;96.09;97529.28;4993645;28;19913;-86
2021/01/05 09:10:00;;;;;;;;;;;;;;;4.74;94.88;97530.94;5008787;28;20013;-87
2021/01/05 09:12:30;;;;;;;;;;;;;;;4.53;95.93;97529.28;5006767;28;19913;-88
2021/01/05 09:14:55;;;;;;;;;;;;;;;4.80;94.97;97529.88;4986345;28;19941;-92
2021/01/05 09:17:20;;;;;;;;;;;;;;;4.77;94.68;97536.63;4985995;28;19913;-91
2021/01/05 09:19:46;;;;;;;;;;;;;;;4.88;93.71;97539.38;5018009;28;20429;-90
2021/01/05 09:22:11;;;;;;;;;;;;;;;5.18;92.50;97540.19;4988213;28;19921;-87
2021/01/05 09:24:36;;;;;;;;;;;;;;;5.21;91.35;97531.53;5004844;28;19920;-88
2021/01/05 09:27:02;;;;;;;;;;;;;;;5.19;90.87;97528.28;5012864;28;19925;-89
2021/01/05 09:29:27;;;;;;;;;;;;;;;5.32;89.47;97519.59;4998624;28;19906;-88
2021/01/05 09:31:53;;;;;;;;;;;;;;;5.09;90.01;97525.56;5016624;28;19921;-87
2021/01/05 09:34:20;;;;;;;;;;;;;;;4.94;90.58;97522.03;4997285;28;20397;-88
2021/01/05 09:36:45;;;;;;;;;;;;;;;4.94;91.42;97519.31;4995972;28;19924;-89
2021/01/05 09:39:12;;;;;;;;;;;;;;;4.91;91.59;97528.00;5005682;28;20298;-89
2021/01/05 09:41:40;;;;;;;;;;;;;;;5.26;93.98;97526.09;4977039;28;20413;-90
2021/01/05 09:44:06;;;;;;;;;;;;;;;5.47;90.35;97529.63;4994645;28;19921;-89
2021/01/05 09:46:31;;;;;;;;;;;;;;;5.39;89.31;97527.44;4994731;28;19914;-90
2021/01/05 09:48:56;;;;;;;;;;;;;;;5.72;87.95;97526.06;4977102;28;19917;-90
2021/01/05 09:51:27;;;;;;;;;;;;;;;5.93;87.63;97511.38;4975469;28;19913;-85
2021/01/05 09:53:52;;;;;;;;;;;;;;;6.25;85.24;97509.06;4977090;28;19920;-90
2021/01/05 09:56:18;;;;;;;;;;;;;;;6.30;84.89;97503.59;4992710;28;20361;-88
2021/01/05 09:58:43;;;;;;;;;;;;;;;8.48;77.35;97497.03;4992802;28;19921;-89
2021/01/05 10:01:09;;;;;;;;;;;;;;;9.28;71.66;97499.66;4977192;28;19914;-87
2021/01/05 10:03:34;;;;;;;;;;;;;;;9.94;70.42;97489.19;4979077;28;19967;-90
2021/01/05 10:05:59;;;;;;;;;;;;;;;10.88;64.38;97477.66;4983337;28;19973;-80
2021/01/05 10:08:24;;;;;;;;;;;;;;;11.69;60.78;97481.94;4985988;28;19920;-85
2021/01/05 10:10:50;;;;;;;;;;;;;;;10.78;61.98;97478.69;4987102;28;20093;-86
2021/01/05 10:13:15;;;;;;;;;;;;;;;11.57;61.50;97479.78;4988158;28;20398;-88
2021/01/05 10:15:40;;;;;;;;;;;;;;;11.09;57.95;97476.03;4988877;28;19927;-85
2021/01/05 10:18:06;;;;;;;;;;;;;;;10.10;60.36;97473.28;4991100;28;20334;-85
2021/01/05 10:20:31;;;;;;;;;;;;;;;8.55;65.46;97481.94;5007198;28;19924;-82
2021/01/05 10:22:57;;;;;;;;;;;;;;;7.70;68.85;97453.84;4990171;28;19925;-90
2021/01/05 10:25:22;;;;;;;;;;;;;;;7.55;72.79;97473.84;4996600;28;19909;-88
2021/01/05 10:27:49;;;;;;;;;;;;;;;7.13;74.95;97471.00;4994382;28;19921;-83
2021/01/05 10:30:15;;;;;;;;;;;;;;;6.34;80.51;97463.94;4991867;28;21525;-82
2021/01/05 10:32:42;;;;;;;;;;;;;;;6.56;81.71;97466.25;4975275;28;20378;-88
2021/01/05 10:35:08;;;;;;;;;;;;;;;6.57;80.18;97469.78;4994516;28;19964;-90
2021/01/05 10:37:33;;;;;;;;;;;;;;;6.02;81.29;97460.84;4995452;28;20164;-90
2021/01/05 10:39:59;;;;;;;;;;;;;;;5.57;86.08;97455.56;5010759;28;20454;-85
2021/01/05 10:42:24;;;;;;;;;;;;;;;5.34;87.64;97451.53;5010449;28;19917;-90
2021/01/05 10:44:49;;;;;;;;;;;;;;;5.55;87.50;97455.81;4992927;28;19905;-87
2021/01/05 10:47:15;;;;;;;;;;;;;;;5.36;88.27;97452.88;5010626;28;19952;-89
2021/01/05 10:49:41;;;;;;;;;;;;;;;5.41;87.34;97454.78;4993805;28;19920;-85
2021/01/05 10:52:06;;;;;;;;;;;;;;;5.29;88.08;97446.13;4993566;28;19953;-85
2021/01/05 10:54:34;;;;;;;;;;;;;;;5.26;88.36;97446.69;5010909;28;19924;-84
2021/01/05 10:57:00;;;;;;;;;;;;;;;5.37;88.05;97446.38;4992332;28;19909;-87
2021/01/05 10:59:26;;;;;;;;;;;;;;;5.37;87.50;97449.09;4993392;28;19924;-88
2021/01/05 11:01:51;;;;;;;;;;;;;;;5.20;89.26;97443.13;5010730;28;19968;-84
2021/01/05 11:04:18;;;;;;;;;;;;;;;5.18;89.86;97434.47;4993668;28;19921;-88
2021/01/05 11:06:51;;;;;;;;;;;;;;;5.15;89.95;97434.22;5006306;28;19921;-88
2021/01/05 11:09:16;;;;;;;;;;;;;;;5.10;90.13;97436.94;4973785;28;19964;-87
2021/01/05 11:11:41;;;;;;;;;;;;;;;5.03;89.97;97429.09;4999279;28;19917;-89
2021/01/05 11:14:07;;;;;;;;;;;;;;;4.96;89.78;97428.53;4993102;28;19998;-86
2021/01/05 11:16:32;;;;;;;;;;;;;;;4.92;89.42;97430.16;5008972;28;19983;-87
2021/01/05 11:18:57;;;;;;;;;;;;;;;4.95;89.54;97426.91;5014749;28;19920;-89
2021/01/05 11:21:22;;;;;;;;;;;;;;;5.04;89.08;97421.78;5006553;28;20367;-82
2021/01/05 11:23:48;;;;;;;;;;;;;;;5.12;89.61;97427.44;4997087;28;19914;-84
2021/01/05 11:26:13;;;;;;;;;;;;;;;5.05;88.83;97421.47;4994894;28;19914;-90
2021/01/05 11:28:38;;;;;;;;;;;;;;;5.15;88.40;97428.78;4994581;28;19957;-87
2021/01/05 11:31:04;;;;;;;;;;;;;;;5.22;87.91;97427.44;5014328;28;19940;-89
2021/01/05 11:33:30;;;;;;;;;;;;;;;5.31;87.19;97420.38;4998261;28;19914;-90
2021/01/05 11:35:55;;;;;;;;;;;;;;;5.08;86.80;97420.94;5015097;28;20271;-87
2021/01/05 11:38:20;;;;;;;;;;;;;;;5.10;87.75;97410.66;4996897;28;19967;-90
2021/01/05 11:40:46;;;;;;;;;;;;;;;5.19;87.63;97392.75;5013181;28;19964;-88
2021/01/05 11:43:11;;;;;;;;;;;;;;;5.24;87.53;97390.00;4996618;28;19917;-86
2021/01/05 11:45:36;;;;;;;;;;;;;;;5.34;86.87;97389.16;4996784;28;19928;-87
2021/01/05 11:48:02;;;;;;;;;;;;;;;5.50;86.70;97395.34;4997016;28;19909;-83
2021/01/05 11:50:27;;;;;;;;;;;;;;;5.71;85.58;97384.16;5004144;28;19920;-89
2021/01/05 11:52:52;;;;;;;;;;;;;;;5.81;85.46;97377.88;5034676;28;19912;-88
2021/01/05 11:55:18;;;;;;;;;;;;;;;5.84;84.84;97386.25;5019498;28;20000;-90
2021/01/05 11:57:44;;;;;;;;;;;;;;;5.90;84.28;97384.34;5028490;28;19925;-88
2021/01/05 12:00:09;;;;;;;;;;;;;;;5.76;84.60;97381.41;4995788;28;19933;-85
2021/01/05 12:02:35;;;;;;;;;;;;;;;5.85;84.38;97378.94;4980213;28;20282;-89
2021/01/05 12:05:00;;;;;;;;;;;;;;;5.77;84.87;97383.03;4990656;28;19905;-88
2021/01/05 12:07:26;;;;;;;;;;;;;;;5.57;85.43;97387.75;5004246;28;20286;-92
2021/01/05 12:09:54;;;;;;;;;;;;;;;5.50;86.36;97387.22;5019077;28;19961;-83
2021/01/05 12:12:37;;;;;;;;;;;;;;;5.44;86.25;97378.31;4985686;28;19912;-86
2021/01/05 12:15:04;;;;;;;;;;;;;;;5.39;86.40;97365.56;5008362;28;20012;-90
2021/01/05 12:17:32;;;;;;;;;;;;;;;5.26;86.72;97360.72;4986914;28;19996;-85
2021/01/05 12:20:00;;;;;;;;;;;;;;;5.32;86.81;97373.19;4992909;28;19921;-93
2021/01/05 12:22:25;;;;;;;;;;;;;;;5.51;86.08;97361.72;4985918;28;19920;-91
2021/01/05 12:24:50;;;;;;;;;;;;;;;5.38;86.09;97357.72;4994701;28;20323;-92
2021/01/05 12:27:16;;;;;;;;;;;;;;;5.38;86.26;97363.97;4985915;28;19963;-90
2021/01/05 12:29:42;;;;;;;;;;;;;;;5.51;86.06;97367.16;4989795;28;19917;-88
2021/01/05 12:35:22;;;;;;;;;;;;;;;5.37;86.33;97383.19;5006340;28;19944;-90
2021/01/05 12:37:50;;;;;;;;;;;;;;;5.36;86.60;97389.69;4987996;28;20869;-89
2021/01/05 12:40:15;;;;;;;;;;;;;;;5.29;86.86;97394.63;4993192;28;19917;-90
2021/01/05 12:42:41;;;;;;;;;;;;;;;5.36;86.51;97392.41;5023010;28;19956;-89
2021/01/05 12:45:08;;;;;;;;;;;;;;;5.30;86.59;97388.09;5015787;28;19956;-92
2021/01/05 12:47:33;;;;;;;;;;;;;;;5.30;84.81;97388.09;5005895;28;19947;-88
2021/01/05 12:50:07;;;;;;;;;;;;;;;5.30;84.50;97397.03;4999045;28;19920;-86
2021/01/05 12:52:48;;;;;;;;;;;;;;;5.34;83.03;97387.28;5013580;28;19925;-82
2021/01/05 12:55:15;;;;;;;;;;;;;;;5.36;83.32;97382.38;5010459;28;19953;-91